Sault Sainte Marie, MI

1:55 PM EST on March 03, 2015 (GMT -0500)
Sault Ste Marie Municipal / Sanderson Field | Change Station
CLOSE
Current Station
Airport
Location: Sault Ste Marie,
Elevation: 715 ft
Nearby Weather Stations
Active Advisory: Winter Weather Advisory

Elev 715 ft 46.48 °N, 84.36 °W | Updated 49 minutes ago

Snow
Snow
21 °F
Feels Like 15 °F
N
5
Wind Variable Wind from ESE

Today
High -- | Low -- °F
--% Chance of Precip.
Yesterday
High -- | Low -- °F
Precip. -- in
7:13 AM 6:26 PM
Waxing Gibbous, 97% visible
Pressure 29.71 in
Visibility 0.2 miles
Clouds
Windchill 15 °F
Dew Point 17 °F
Humidity 85%
Rainfall 0.11 in
Snow Depth Not available.
UV Not available.
Pollen .40 out of 12
Air Quality Not available.
Flu Activity Not available.
SPECI KANJ 031806Z AUTO 12004KT 1/4SM SN FZFG VV012 M06/M08 A2971 RMK AO2 PRESFR P0001 T10611083

More Conditions Fewer Conditions

Pressure 29.71 in
Visibility 0.2 miles
Clouds
Windchill 15 °F
Dew Point 17 °F
Humidity 85%
Rainfall 0.11 in
Snow Depth Not available.
UV Not available.
Pollen .40 out of 12
Air Quality Not available.
Flu Activity Not available.
SPECI KANJ 031806Z AUTO 12004KT 1/4SM SN FZFG VV012 M06/M08 A2971 RMK AO2 PRESFR P0001 T10611083

More Conditions Fewer Conditions

Nowcast | as of 1:00 PM EST on March 3, 2015

Winter Weather Advisory in effect until 7 PM EST this evening... At 2 PM...snow. Temperature 22. Southeast winds 9 mph. At 4 PM...snow. Temperature 23. Southeast winds 7 mph. At 6 PM...snow likely. Temperature 23. Southeast winds 5 mph. At 8 PM...snow likely. Temperature 22. South winds 6 mph.

×

10-Day Weather Forecast

Almanac

Astronomy

Mar. 03, 2015 Rise Set
Actual Time
Civil Twilight
Nautical Twilight
Astronomical Twilight
Moon
Length of Visible Light
Length of Day
Tomorrow will be .
, % of the Moon is Illuminated

Today's Extremes

State Highs State Lows

Community

WunderPhotos

Upload Photos

1,802,198 photos uploaded!

WunderBlogs® & News

Nearby

Air Quality

  Air Quality AQ Index Pollutant
Not available.

Snow Depth

Station Depth Elevation

Earthquake Activity

City Distance Mag. Time & Date
Minimum magnitude displayed is 2.5.

Coastal Water Temperatures

Place Temperature

Nearby Weather Stations

Winter Weather Advisory
Statement as of 12:10 PM EST on March 03, 2015

... Winter Weather Advisory remains in effect until 7 PM EST this
evening...

* timing... periods of snow will persist across eastern Upper
Michigan through much of the afternoon... before tapering off to
flurries early this evening.

* Total snowfall amounts... 3 to 5 inches.

* Impacts... snow covered roads and slick travel. Areas of
reduced visibility.

Precautionary/preparedness actions...

A Winter Weather Advisory for snow means that periods of snow
will cause primarily travel difficulties. Be prepared for snow
covered roads and limited visibilities... and use caution while
driving.